Time;durP1;ratioP1;P1;durP2;ratioP2;P2;SDS_P1;SDS_P2;PMS_P1;PMS_P2;Temp;Humidity;BMP_temperature;BMP_pressure;BME280_temperature;BME280_humidity;BME280_pressure;Samples;Min_cycle;Max_cycle;Signal;HPM_P1;HPM_P2
2022/05/12 00:00:30;;;;;;;16.42;11.45;;;;;;;;;;5034855;28;20026;-64
2022/05/12 00:02:56;;;;;;;17.02;12.10;;;;;;;;;;5034779;28;20037;-62
2022/05/12 00:05:23;;;;;;;25.50;14.70;;;;;;;;;;5035125;28;20544;-64
2022/05/12 00:07:50;;;;;;;21.05;14.50;;;;;;;;;;5034695;28;20025;-64
2022/05/12 00:10:19;;;;;;;24.58;14.82;;;;;;;;;;5034337;28;20080;-62
2022/05/12 00:12:46;;;;;;;24.10;15.17;;;;;;;;;;5034881;28;20084;-63
2022/05/12 00:15:17;;;;;;;22.35;14.85;;;;;;;;;;5034544;28;20033;-62
2022/05/12 00:17:44;;;;;;;30.13;13.80;;;;;;;;;;5035073;28;20025;-62
2022/05/12 00:20:12;;;;;;;21.48;14.18;;;;;;;;;;5035024;28;20017;-63
2022/05/12 00:22:37;;;;;;;19.75;12.82;;;;;;;;;;5034792;28;20034;-64
2022/05/12 00:25:04;;;;;;;18.55;13.68;;;;;;;;;;5034441;28;20030;-64
2022/05/12 00:27:30;;;;;;;19.50;13.68;;;;;;;;;;5034619;28;20383;-62
2022/05/12 00:29:55;;;;;;;22.02;13.77;;;;;;;;;;5034466;28;20017;-64
2022/05/12 00:32:21;;;;;;;17.77;13.50;;;;;;;;;;5034520;28;20029;-64
2022/05/12 00:34:46;;;;;;;20.23;13.80;;;;;;;;;;5034513;28;20537;-63
2022/05/12 00:37:12;;;;;;;24.02;13.98;;;;;;;;;;5034260;28;20061;-64
2022/05/12 00:39:37;;;;;;;19.35;13.18;;;;;;;;;;5034531;28;20467;-63
2022/05/12 00:42:03;;;;;;;21.88;13.15;;;;;;;;;;5034086;28;20112;-63
2022/05/12 00:44:29;;;;;;;22.70;12.32;;;;;;;;;;5034287;28;20423;-64
2022/05/12 00:46:54;;;;;;;16.23;12.00;;;;;;;;;;5034242;28;20021;-63
2022/05/12 00:49:25;;;;;;;17.45;12.25;;;;;;;;;;5034188;28;20021;-64
2022/05/12 00:51:56;;;;;;;17.33;12.25;;;;;;;;;;5034073;28;20434;-63
2022/05/12 00:54:55;;;;;;;19.10;12.05;;;;;;;;;;5034095;28;20052;-64
2022/05/12 00:57:26;;;;;;;19.35;12.45;;;;;;;;;;5029654;28;20041;-63
2022/05/12 00:59:52;;;;;;;18.85;11.32;;;;;;;;;;5033908;28;20017;-63
2022/05/12 01:02:19;;;;;;;21.75;12.90;;;;;;;;;;5033861;28;20029;-62
2022/05/12 01:04:47;;;;;;;18.27;12.68;;;;;;;;;;5033846;28;20059;-64
2022/05/12 01:07:13;;;;;;;18.63;12.88;;;;;;;;;;5032539;28;20045;-62
2022/05/12 01:09:38;;;;;;;18.65;12.48;;;;;;;;;;5033816;28;20491;-63
2022/05/12 01:12:05;;;;;;;20.52;13.52;;;;;;;;;;5033494;28;20033;-63
2022/05/12 01:14:30;;;;;;;19.27;13.80;;;;;;;;;;5033683;28;20026;-63
2022/05/12 01:16:58;;;;;;;26.48;14.05;;;;;;;;;;5033607;28;20032;-63
2022/05/12 01:19:27;;;;;;;19.70;13.85;;;;;;;;;;5033553;28;20115;-63
2022/05/12 01:21:53;;;;;;;18.27;12.60;;;;;;;;;;5033404;28;20029;-64
2022/05/12 01:24:21;;;;;;;17.05;13.10;;;;;;;;;;5033440;28;20033;-63
2022/05/12 01:26:47;;;;;;;18.13;13.45;;;;;;;;;;5033269;28;20033;-64
2022/05/12 01:29:13;;;;;;;24.08;13.77;;;;;;;;;;5033229;28;20083;-65
2022/05/12 01:31:39;;;;;;;19.02;13.05;;;;;;;;;;5033450;28;20029;-64
2022/05/12 01:34:07;;;;;;;18.13;13.40;;;;;;;;;;5033454;28;20474;-63
2022/05/12 01:36:33;;;;;;;20.20;12.32;;;;;;;;;;5033316;28;20091;-64
2022/05/12 01:38:59;;;;;;;19.35;13.13;;;;;;;;;;5033303;28;20021;-63
2022/05/12 01:41:25;;;;;;;21.77;14.27;;;;;;;;;;5031347;28;20033;-63
2022/05/12 01:43:51;;;;;;;16.63;12.57;;;;;;;;;;5032896;28;20053;-62
2022/05/12 01:46:17;;;;;;;16.02;12.60;;;;;;;;;;5033301;28;20316;-62
2022/05/12 01:48:43;;;;;;;18.83;13.70;;;;;;;;;;5033128;28;20099;-64
2022/05/12 01:51:09;;;;;;;19.48;14.52;;;;;;;;;;5033064;28;20451;-64
2022/05/12 01:53:34;;;;;;;17.80;12.85;;;;;;;;;;5032884;28;20061;-62
2022/05/12 01:56:01;;;;;;;20.27;14.40;;;;;;;;;;5032879;28;20083;-63
2022/05/12 01:58:27;;;;;;;29.17;18.27;;;;;;;;;;5033085;28;20025;-64
2022/05/12 02:00:52;;;;;;;22.02;15.25;;;;;;;;;;5032932;28;20487;-64
2022/05/12 02:03:18;;;;;;;23.40;14.73;;;;;;;;;;5032964;28;20100;-64
2022/05/12 02:05:45;;;;;;;21.92;14.75;;;;;;;;;;5032769;28;20155;-64
2022/05/12 02:08:12;;;;;;;20.42;14.57;;;;;;;;;;5032862;28;20029;-63
2022/05/12 02:10:41;;;;;;;23.67;14.52;;;;;;;;;;5032733;28;20018;-65
2022/05/12 02:13:09;;;;;;;22.08;15.30;;;;;;;;;;5032640;28;20371;-66
2022/05/12 02:15:35;;;;;;;31.15;17.20;;;;;;;;;;5032727;28;20546;-65
2022/05/12 02:18:01;;;;;;;26.02;17.90;;;;;;;;;;5032612;28;20486;-65
2022/05/12 02:20:27;;;;;;;27.33;17.38;;;;;;;;;;5032669;28;20033;-63
2022/05/12 02:22:52;;;;;;;26.17;16.65;;;;;;;;;;5032768;28;20026;-63
2022/05/12 02:25:18;;;;;;;28.73;17.70;;;;;;;;;;5032232;28;20463;-62
2022/05/12 02:27:45;;;;;;;27.73;16.70;;;;;;;;;;5032495;28;20030;-63
2022/05/12 02:30:22;;;;;;;27.55;15.93;;;;;;;;;;5032425;28;20075;-63
2022/05/12 02:32:47;;;;;;;23.63;15.57;;;;;;;;;;5032147;28;20429;-63
2022/05/12 02:35:15;;;;;;;25.15;16.23;;;;;;;;;;5032426;28;20025;-63
2022/05/12 02:37:41;;;;;;;22.95;14.27;;;;;;;;;;5032346;28;20025;-65
2022/05/12 02:40:08;;;;;;;24.92;14.85;;;;;;;;;;5032126;28;20033;-64
2022/05/12 02:42:33;;;;;;;22.33;13.38;;;;;;;;;;5032287;28;20049;-65
2022/05/12 02:44:59;;;;;;;26.35;14.07;;;;;;;;;;5032374;28;20165;-62
2022/05/12 02:47:24;;;;;;;22.08;13.57;;;;;;;;;;5032403;28;20022;-64
2022/05/12 02:49:50;;;;;;;22.85;13.98;;;;;;;;;;5032305;28;20068;-62
2022/05/12 02:52:15;;;;;;;26.20;14.38;;;;;;;;;;5032308;28;20017;-65
2022/05/12 02:54:41;;;;;;;24.17;14.73;;;;;;;;;;5032174;28;20033;-63
2022/05/12 02:57:07;;;;;;;23.60;14.63;;;;;;;;;;5032316;28;20033;-63
2022/05/12 02:59:32;;;;;;;24.33;13.70;;;;;;;;;;5032366;28;20025;-63
2022/05/12 03:01:58;;;;;;;23.35;14.40;;;;;;;;;;5032214;28;20018;-63
2022/05/12 03:04:25;;;;;;;21.63;14.45;;;;;;;;;;5032218;28;20514;-63
2022/05/12 03:06:51;;;;;;;21.80;13.10;;;;;;;;;;5032250;28;20049;-64
2022/05/12 03:09:16;;;;;;;20.83;13.35;;;;;;;;;;5032115;28;20466;-63
2022/05/12 03:11:42;;;;;;;23.15;13.65;;;;;;;;;;5032369;28;20086;-63
2022/05/12 03:14:08;;;;;;;24.80;13.75;;;;;;;;;;5032120;28;20076;-65
2022/05/12 03:16:33;;;;;;;23.55;13.65;;;;;;;;;;5031987;28;20471;-64
2022/05/12 03:18:59;;;;;;;25.95;14.68;;;;;;;;;;5031979;28;20049;-63
2022/05/12 03:21:26;;;;;;;25.23;15.82;;;;;;;;;;5031945;28;20037;-63
2022/05/12 03:23:52;;;;;;;24.27;15.20;;;;;;;;;;5031636;28;20450;-63
2022/05/12 03:26:18;;;;;;;24.30;14.95;;;;;;;;;;5031707;28;20025;-63
2022/05/12 03:28:44;;;;;;;22.83;15.32;;;;;;;;;;5032128;28;20037;-63
2022/05/12 03:31:10;;;;;;;23.27;15.70;;;;;;;;;;5032153;28;20037;-63
2022/05/12 03:33:36;;;;;;;23.95;15.82;;;;;;;;;;5031993;28;20148;-63
2022/05/12 03:36:03;;;;;;;26.15;17.08;;;;;;;;;;5031714;28;20029;-63
2022/05/12 03:38:29;;;;;;;25.23;16.23;;;;;;;;;;5031742;28;20104;-62
2022/05/12 03:40:55;;;;;;;25.52;17.30;;;;;;;;;;5031806;28;20095;-64
2022/05/12 03:46:06;;;;;;;25.13;16.27;;;;;;;;;;5035790;28;20037;-63
2022/05/12 03:48:34;;;;;;;23.95;15.13;;;;;;;;;;5035398;28;20025;-64
2022/05/12 03:50:59;;;;;;;24.30;16.38;;;;;;;;;;5035207;28;20104;-64
2022/05/12 03:53:26;;;;;;;24.83;16.85;;;;;;;;;;5035414;28;20155;-65
2022/05/12 03:55:51;;;;;;;27.92;17.60;;;;;;;;;;5035153;28;20025;-62
2022/05/12 03:58:17;;;;;;;27.63;17.25;;;;;;;;;;5035169;28;20036;-64
2022/05/12 04:00:42;;;;;;;31.92;18.05;;;;;;;;;;5035254;28;20536;-63
2022/05/12 04:03:08;;;;;;;27.85;18.25;;;;;;;;;;5035121;28;20525;-64
2022/05/12 04:05:34;;;;;;;25.13;17.75;;;;;;;;;;5034913;28;20032;-64
2022/05/12 04:07:59;;;;;;;28.48;18.02;;;;;;;;;;5034926;28;20517;-62
2022/05/12 04:10:26;;;;;;;26.40;16.52;;;;;;;;;;5033834;28;20036;-62
2022/05/12 04:12:52;;;;;;;25.50;14.93;;;;;;;;;;5035088;28;20027;-63
2022/05/12 04:15:19;;;;;;;24.63;14.75;;;;;;;;;;5035151;28;20108;-65
2022/05/12 04:17:53;;;;;;;22.30;14.65;;;;;;;;;;5034773;28;20117;-63
2022/05/12 04:20:19;;;;;;;18.63;11.27;;;;;;;;;;5034531;28;20112;-63
2022/05/12 04:22:44;;;;;;;19.45;12.77;;;;;;;;;;5034841;28;20104;-62
2022/05/12 04:25:11;;;;;;;19.20;11.27;;;;;;;;;;5034662;28;20032;-63
2022/05/12 04:27:37;;;;;;;16.13;10.52;;;;;;;;;;5034652;28;20037;-63
2022/05/12 04:30:05;;;;;;;16.20;9.32;;;;;;;;;;5034594;28;20072;-62
2022/05/12 04:32:33;;;;;;;16.40;10.50;;;;;;;;;;5034541;28;20037;-64
2022/05/12 04:35:16;;;;;;;18.02;10.15;;;;;;;;;;5034332;28;20021;-62
2022/05/12 04:37:51;;;;;;;15.75;10.07;;;;;;;;;;5034548;28;20436;-64
2022/05/12 04:40:26;;;;;;;15.43;7.88;;;;;;;;;;5034499;28;20026;-64
2022/05/12 04:42:54;;;;;;;13.35;8.25;;;;;;;;;;5034197;28;20049;-65
2022/05/12 04:45:21;;;;;;;15.18;8.90;;;;;;;;;;5034352;28;20087;-62
2022/05/12 04:47:47;;;;;;;16.77;8.82;;;;;;;;;;5034134;28;20474;-65
2022/05/12 04:50:17;;;;;;;14.25;8.38;;;;;;;;;;5033968;28;20076;-63
2022/05/12 04:52:43;;;;;;;14.67;7.37;;;;;;;;;;5033890;28;20033;-64
2022/05/12 04:55:10;;;;;;;11.50;7.40;;;;;;;;;;5033623;28;20475;-63
2022/05/12 04:57:43;;;;;;;10.98;6.45;;;;;;;;;;5033883;28;20036;-64
2022/05/12 05:00:13;;;;;;;12.32;6.78;;;;;;;;;;5033897;28;20109;-65
2022/05/12 05:02:39;;;;;;;7.38;4.50;;;;;;;;;;5033437;28;20168;-63
2022/05/12 05:05:06;;;;;;;18.25;5.95;;;;;;;;;;5033610;28;20029;-64
2022/05/12 05:07:32;;;;;;;11.77;5.55;;;;;;;;;;5033600;28;20022;-64
2022/05/12 05:09:58;;;;;;;6.80;4.85;;;;;;;;;;5033523;28;20445;-64
2022/05/12 05:12:23;;;;;;;5.45;4.07;;;;;;;;;;5033580;28;20367;-63
2022/05/12 05:14:49;;;;;;;6.28;3.33;;;;;;;;;;5033689;28;20031;-64
2022/05/12 05:17:14;;;;;;;7.75;4.00;;;;;;;;;;5033353;28;20029;-64
2022/05/12 05:19:41;;;;;;;5.60;3.17;;;;;;;;;;5033445;28;20052;-64
2022/05/12 05:22:07;;;;;;;9.23;4.05;;;;;;;;;;5033260;28;20079;-63
2022/05/12 05:24:34;;;;;;;6.65;3.35;;;;;;;;;;5033517;28;20122;-63
2022/05/12 05:27:00;;;;;;;7.82;3.65;;;;;;;;;;5033439;28;20017;-64
2022/05/12 05:29:25;;;;;;;9.27;3.53;;;;;;;;;;5033378;28;20052;-64
2022/05/12 05:31:51;;;;;;;11.15;3.47;;;;;;;;;;5033308;28;20021;-64
2022/05/12 05:34:17;;;;;;;10.20;3.28;;;;;;;;;;5033390;28;20022;-63
2022/05/12 05:36:44;;;;;;;7.55;2.83;;;;;;;;;;5033187;28;20026;-64
2022/05/12 05:39:24;;;;;;;9.45;3.15;;;;;;;;;;5033107;28;20045;-64
2022/05/12 05:41:52;;;;;;;6.43;2.85;;;;;;;;;;5032986;28;20025;-62
2022/05/12 05:44:18;;;;;;;9.02;3.08;;;;;;;;;;5033072;28;20451;-62
2022/05/12 05:46:44;;;;;;;7.40;2.90;;;;;;;;;;5032979;28;20052;-64
2022/05/12 05:49:09;;;;;;;3.35;2.35;;;;;;;;;;5033057;28;20047;-62
2022/05/12 05:54:18;;;;;;;8.77;3.08;;;;;;;;;;5032891;28;20087;-63
2022/05/12 05:56:44;;;;;;;12.95;3.10;;;;;;;;;;5032883;28;20034;-63
2022/05/12 05:59:09;;;;;;;6.70;2.42;;;;;;;;;;5032902;28;20474;-63
2022/05/12 06:01:35;;;;;;;6.70;2.80;;;;;;;;;;5032614;28;20026;-64
2022/05/12 06:04:00;;;;;;;6.05;2.53;;;;;;;;;;5032643;28;20048;-61
2022/05/12 06:06:26;;;;;;;7.80;2.97;;;;;;;;;;5031742;28;20025;-63
2022/05/12 06:08:52;;;;;;;5.20;2.10;;;;;;;;;;5032687;28;20092;-64
2022/05/12 06:11:18;;;;;;;6.35;2.60;;;;;;;;;;5032673;28;20108;-63
2022/05/12 06:13:44;;;;;;;6.35;2.63;;;;;;;;;;5032771;28;20111;-63
2022/05/12 06:16:10;;;;;;;5.15;2.47;;;;;;;;;;5032417;28;20033;-62
2022/05/12 06:18:37;;;;;;;4.13;2.20;;;;;;;;;;5032486;28;20025;-62
2022/05/12 06:21:04;;;;;;;13.05;2.83;;;;;;;;;;5032282;28;20019;-62
2022/05/12 06:23:30;;;;;;;12.55;2.72;;;;;;;;;;5032538;28;20033;-63
2022/05/12 06:25:55;;;;;;;8.73;2.72;;;;;;;;;;5032245;28;20375;-62
2022/05/12 06:28:21;;;;;;;5.53;2.42;;;;;;;;;;5032417;28;20033;-63
2022/05/12 06:30:46;;;;;;;6.57;2.25;;;;;;;;;;5032269;28;20029;-64
2022/05/12 06:33:19;;;;;;;10.57;2.53;;;;;;;;;;5032217;28;20032;-62
2022/05/12 06:35:47;;;;;;;7.10;2.35;;;;;;;;;;5032441;28;20025;-64
2022/05/12 06:38:12;;;;;;;2.70;1.80;;;;;;;;;;5032551;28;20022;-64
2022/05/12 06:40:39;;;;;;;6.30;2.20;;;;;;;;;;5032561;28;20493;-63
2022/05/12 06:43:06;;;;;;;7.13;1.90;;;;;;;;;;5031989;28;20057;-66
2022/05/12 06:45:31;;;;;;;1.92;1.50;;;;;;;;;;5032114;28;20164;-63
2022/05/12 06:47:57;;;;;;;3.50;1.60;;;;;;;;;;5031994;28;20485;-64
2022/05/12 06:50:26;;;;;;;6.30;1.75;;;;;;;;;;5032306;28;20048;-63
2022/05/12 06:52:53;;;;;;;8.13;2.75;;;;;;;;;;5032342;28;20522;-64
2022/05/12 06:55:20;;;;;;;7.75;4.97;;;;;;;;;;5032127;28;20049;-63
2022/05/12 06:57:45;;;;;;;4.53;2.00;;;;;;;;;;5032025;28;20018;-64
2022/05/12 07:00:16;;;;;;;5.20;1.85;;;;;;;;;;5031828;28;20025;-63
2022/05/12 07:02:45;;;;;;;5.15;2.20;;;;;;;;;;5032273;28;20036;-63
2022/05/12 07:05:13;;;;;;;4.15;1.65;;;;;;;;;;5032239;28;20100;-66
2022/05/12 07:07:38;;;;;;;4.70;1.20;;;;;;;;;;5032103;28;20383;-66
2022/05/12 07:10:08;;;;;;;12.82;2.25;;;;;;;;;;5032113;28;20026;-64
2022/05/12 07:12:33;;;;;;;4.10;1.40;;;;;;;;;;5032248;28;20018;-66
2022/05/12 07:15:00;;;;;;;3.42;1.10;;;;;;;;;;5031956;28;20389;-62
2022/05/12 07:17:25;;;;;;;7.22;1.20;;;;;;;;;;5032349;28;20048;-63
2022/05/12 07:26:34;;;;;;;2.33;1.20;;;;;;;;;;5035692;28;20029;-63
2022/05/12 07:28:05;;;;;;;3.40;0.98;;;;;;;;;;5035721;28;20060;-64
2022/05/12 07:31:00;;;;;;;2.53;0.70;;;;;;;;;;5033209;28;20029;-64
2022/05/12 07:33:15;;;;;;;2.83;0.90;;;;;;;;;;5035280;28;20065;-63
2022/05/12 07:35:41;;;;;;;1.33;0.80;;;;;;;;;;5035789;28;20060;-63
2022/05/12 07:38:06;;;;;;;2.35;0.93;;;;;;;;;;5035555;28;20022;-63
2022/05/12 07:40:32;;;;;;;0.95;0.73;;;;;;;;;;5035639;28;20087;-63
2022/05/12 07:42:57;;;;;;;3.22;0.90;;;;;;;;;;5035057;28;20372;-63
2022/05/12 07:45:23;;;;;;;4.43;1.20;;;;;;;;;;5035548;28;20034;-63
2022/05/12 07:47:48;;;;;;;7.32;1.67;;;;;;;;;;5034982;28;20033;-62
2022/05/12 07:50:14;;;;;;;1.98;0.63;;;;;;;;;;5035433;28;20159;-64
2022/05/12 07:52:39;;;;;;;11.07;1.48;;;;;;;;;;5035505;28;20505;-62
2022/05/12 07:55:05;;;;;;;2.38;1.05;;;;;;;;;;5035268;28;20091;-63
2022/05/12 07:57:31;;;;;;;2.28;0.70;;;;;;;;;;5036390;28;20057;-64
2022/05/12 07:59:56;;;;;;;3.60;0.70;;;;;;;;;;5055189;28;20377;-63
2022/05/12 08:02:22;;;;;;;1.17;0.50;;;;;;;;;;5055098;28;20057;-64
2022/05/12 08:04:47;;;;;;;1.70;0.73;;;;;;;;;;5055136;28;20421;-62
2022/05/12 08:07:13;;;;;;;2.53;0.90;;;;;;;;;;5054661;28;20047;-65
2022/05/12 08:09:38;;;;;;;6.32;0.88;;;;;;;;;;5054806;28;20458;-63
2022/05/12 08:12:04;;;;;;;2.95;0.63;;;;;;;;;;5054768;28;20029;-64
2022/05/12 08:14:30;;;;;;;2.47;0.90;;;;;;;;;;5055030;28;20592;-63
2022/05/12 08:16:55;;;;;;;1.25;0.52;;;;;;;;;;5038423;28;20125;-63
2022/05/12 08:19:21;;;;;;;3.03;0.47;;;;;;;;;;5032996;28;20057;-62
2022/05/12 08:21:46;;;;;;;1.23;0.60;;;;;;;;;;5032809;28;20028;-61
2022/05/12 08:24:12;;;;;;;3.80;0.85;;;;;;;;;;5018344;28;20467;-63
2022/05/12 08:26:37;;;;;;;1.85;0.75;;;;;;;;;;5022414;28;20053;-62
2022/05/12 08:29:03;;;;;;;2.08;0.70;;;;;;;;;;5014313;28;20018;-63
2022/05/12 08:31:30;;;;;;;4.93;1.38;;;;;;;;;;5020032;28;20052;-62
2022/05/12 08:33:56;;;;;;;1.52;1.00;;;;;;;;;;5028846;28;20088;-62
2022/05/12 08:36:22;;;;;;;4.03;1.20;;;;;;;;;;5014723;28;20109;-62
2022/05/12 08:38:47;;;;;;;5.13;1.10;;;;;;;;;;5014687;28;20101;-62
2022/05/12 08:41:33;;;;;;;3.30;1.13;;;;;;;;;;5014608;28;20062;-62
2022/05/12 08:44:13;;;;;;;2.55;1.00;;;;;;;;;;5014476;28;20042;-63
2022/05/12 08:46:45;;;;;;;2.17;0.73;;;;;;;;;;5014653;28;20454;-65
2022/05/12 08:49:27;;;;;;;1.48;0.80;;;;;;;;;;5014578;28;20121;-62
2022/05/12 08:52:05;;;;;;;4.95;0.88;;;;;;;;;;5014312;28;20092;-63
2022/05/12 08:54:30;;;;;;;9.85;1.40;;;;;;;;;;5014427;28;20396;-63
2022/05/12 08:57:02;;;;;;;2.97;1.10;;;;;;;;;;5013923;28;20041;-62
2022/05/12 08:59:28;;;;;;;5.95;1.20;;;;;;;;;;5014537;28;20097;-63
2022/05/12 09:02:12;;;;;;;4.82;1.35;;;;;;;;;;5014170;28;20061;-62
2022/05/12 09:05:01;;;;;;;5.40;1.40;;;;;;;;;;5014160;28;20026;-62
2022/05/12 09:07:40;;;;;;;4.55;0.90;;;;;;;;;;5013918;28;20241;-62
2022/05/12 09:10:10;;;;;;;3.47;1.30;;;;;;;;;;5013934;28;20037;-62
2022/05/12 09:12:46;;;;;;;4.55;1.38;;;;;;;;;;5013996;28;20045;-62
2022/05/12 09:15:24;;;;;;;5.03;1.30;;;;;;;;;;5014125;28;20049;-61
2022/05/12 09:18:05;;;;;;;4.10;1.20;;;;;;;;;;5014062;28;20048;-62
2022/05/12 09:20:34;;;;;;;5.15;1.17;;;;;;;;;;5013685;28;20042;-61
2022/05/12 09:23:00;;;;;;;7.88;1.40;;;;;;;;;;5013610;28;20085;-61
2022/05/12 09:25:31;;;;;;;4.65;1.40;;;;;;;;;;5027670;28;20033;-62
2022/05/12 09:28:00;;;;;;;2.40;1.10;;;;;;;;;;5033450;28;20494;-63
2022/05/12 09:30:35;;;;;;;5.70;1.50;;;;;;;;;;5033466;28;20128;-63
2022/05/12 09:33:02;;;;;;;3.40;1.40;;;;;;;;;;5033320;28;20079;-62
2022/05/12 09:35:30;;;;;;;3.78;1.52;;;;;;;;;;5033435;28;20029;-63
2022/05/12 09:37:56;;;;;;;9.60;1.83;;;;;;;;;;5033413;28;20422;-65
2022/05/12 09:40:31;;;;;;;4.28;1.20;;;;;;;;;;5033081;28;20031;-63
2022/05/12 09:43:00;;;;;;;2.10;0.88;;;;;;;;;;5032414;28;20516;-64
2022/05/12 09:45:27;;;;;;;5.03;1.33;;;;;;;;;;5033265;28;20032;-63
2022/05/12 09:48:17;;;;;;;7.15;1.70;;;;;;;;;;5032123;28;20025;-63
2022/05/12 09:50:43;;;;;;;2.87;1.17;;;;;;;;;;5026758;28;20042;-63
2022/05/12 09:53:10;;;;;;;3.22;1.05;;;;;;;;;;5032758;28;20371;-63
2022/05/12 09:55:42;;;;;;;5.05;1.45;;;;;;;;;;5032960;28;20383;-63
2022/05/12 09:58:13;;;;;;;3.45;1.33;;;;;;;;;;5032963;28;20059;-64
2022/05/12 10:00:41;;;;;;;4.70;1.55;;;;;;;;;;5032829;28;20029;-63
2022/05/12 10:09:04;;;;;;;2.47;1.10;;;;;;;;;;5032794;28;20036;-63
2022/05/12 10:11:38;;;;;;;4.35;1.45;;;;;;;;;;5032826;28;20025;-65
2022/05/12 10:14:05;;;;;;;8.07;1.30;;;;;;;;;;5032770;28;20082;-63
2022/05/12 10:16:33;;;;;;;1.85;0.98;;;;;;;;;;5032856;28;20025;-63
2022/05/12 10:19:04;;;;;;;5.07;1.10;;;;;;;;;;5032440;28;20026;-63
2022/05/12 10:21:51;;;;;;;5.03;1.20;;;;;;;;;;5032502;28;20100;-62
2022/05/12 10:24:37;;;;;;;3.83;1.10;;;;;;;;;;5032556;28;20403;-63
2022/05/12 10:27:06;;;;;;;6.85;1.58;;;;;;;;;;5032611;28;20029;-62
2022/05/12 10:29:42;;;;;;;9.02;1.30;;;;;;;;;;5032649;28;20033;-64
2022/05/12 10:32:31;;;;;;;3.97;1.52;;;;;;;;;;5028644;28;20080;-63
2022/05/12 10:35:05;;;;;;;4.50;1.00;;;;;;;;;;5012726;28;20026;-64
2022/05/12 10:37:49;;;;;;;3.75;1.30;;;;;;;;;;5012591;28;20092;-63
2022/05/12 10:40:39;;;;;;;6.03;1.40;;;;;;;;;;5011442;28;20030;-62
2022/05/12 10:43:35;;;;;;;2.42;1.15;;;;;;;;;;5012356;28;20115;-63
2022/05/12 10:46:11;;;;;;;3.47;0.90;;;;;;;;;;5012707;28;20146;-62
2022/05/12 10:48:56;;;;;;;5.57;0.85;;;;;;;;;;5012632;28;20030;-62
2022/05/12 10:51:49;;;;;;;3.22;1.20;;;;;;;;;;5012439;28;20030;-64
2022/05/12 10:54:20;;;;;;;4.32;0.75;;;;;;;;;;5015843;28;20414;-64
2022/05/12 10:56:51;;;;;;;1.75;0.80;;;;;;;;;;5018066;28;20026;-64
2022/05/12 10:59:30;;;;;;;2.35;0.90;;;;;;;;;;5016618;28;20029;-63
2022/05/12 11:02:09;;;;;;;3.17;1.20;;;;;;;;;;5017025;28;20032;-64
2022/05/12 11:04:41;;;;;;;4.05;1.00;;;;;;;;;;5016026;28;20148;-63
2022/05/12 11:07:42;;;;;;;7.38;0.90;;;;;;;;;;5016987;28;20030;-64
2022/05/12 11:10:20;;;;;;;5.32;1.10;;;;;;;;;;5017633;28;20021;-65
2022/05/12 11:12:51;;;;;;;2.50;1.00;;;;;;;;;;5034634;28;20550;-61
2022/05/12 11:15:20;;;;;;;5.15;1.05;;;;;;;;;;5034554;28;20029;-63
2022/05/12 11:18:01;;;;;;;2.53;1.10;;;;;;;;;;5031873;28;20021;-62
2022/05/12 11:20:36;;;;;;;3.92;1.20;;;;;;;;;;5030027;28;20025;-62
2022/05/12 11:23:32;;;;;;;3.05;0.98;;;;;;;;;;5032570;28;20025;-63
2022/05/12 11:26:41;;;;;;;4.28;1.23;;;;;;;;;;5026078;28;20041;-63
2022/05/12 11:32:15;;;;;;;3.15;1.10;;;;;;;;;;5035264;28;20045;-62
2022/05/12 11:34:45;;;;;;;3.22;0.80;;;;;;;;;;5031703;28;20444;-62
2022/05/12 11:37:35;;;;;;;2.55;0.90;;;;;;;;;;5015681;28;20479;-61
2022/05/12 11:40:13;;;;;;;0.82;0.60;;;;;;;;;;5016475;28;20037;-62
2022/05/12 11:46:11;;;;;;;2.55;0.70;;;;;;;;;;5015824;28;20120;-63
2022/05/12 11:48:49;;;;;;;1.75;0.90;;;;;;;;;;5028164;28;20566;-62
2022/05/12 11:51:29;;;;;;;2.53;0.98;;;;;;;;;;5034818;28;20041;-62
2022/05/12 11:54:07;;;;;;;2.97;0.90;;;;;;;;;;5033246;28;20395;-63
2022/05/12 11:56:42;;;;;;;1.75;0.90;;;;;;;;;;5019351;28;20028;-63
2022/05/12 11:59:16;;;;;;;2.35;0.90;;;;;;;;;;5035015;28;20411;-63
2022/05/12 12:01:41;;;;;;;4.47;0.90;;;;;;;;;;5015353;28;20029;-63
2022/05/12 12:04:14;;;;;;;1.85;0.73;;;;;;;;;;5014114;28;20022;-62
2022/05/12 12:06:47;;;;;;;2.55;0.80;;;;;;;;;;5015412;28;20030;-64
2022/05/12 12:09:25;;;;;;;2.00;0.75;;;;;;;;;;5014960;28;20113;-64
2022/05/12 12:11:51;;;;;;;4.15;0.80;;;;;;;;;;5015164;28;20101;-61
2022/05/12 12:14:50;;;;;;;5.03;0.80;;;;;;;;;;5015362;28;20053;-64
2022/05/12 12:17:24;;;;;;;1.67;0.80;;;;;;;;;;5015169;28;20038;-63
2022/05/12 12:19:52;;;;;;;2.72;0.70;;;;;;;;;;5026844;28;20025;-64
2022/05/12 12:22:27;;;;;;;5.57;0.90;;;;;;;;;;5034793;28;20030;-63
2022/05/12 12:24:56;;;;;;;3.35;0.90;;;;;;;;;;5034543;28;20039;-63
2022/05/12 12:27:48;;;;;;;4.80;1.10;;;;;;;;;;5034619;28;20068;-63
2022/05/12 12:30:24;;;;;;;2.08;0.90;;;;;;;;;;4992998;28;20454;-64
2022/05/12 12:33:13;;;;;;;5.47;1.00;;;;;;;;;;4992850;28;20065;-61
2022/05/12 12:35:56;;;;;;;3.00;0.85;;;;;;;;;;4992670;28;20118;-64
2022/05/12 12:38:49;;;;;;;5.28;1.70;;;;;;;;;;4992910;28;20026;-64
2022/05/12 12:41:32;;;;;;;6.10;1.00;;;;;;;;;;4992878;28;20041;-64
2022/05/12 12:44:12;;;;;;;6.78;1.10;;;;;;;;;;4992527;28;20107;-64
2022/05/12 12:46:54;;;;;;;3.58;0.82;;;;;;;;;;4992806;28;20564;-63
2022/05/12 12:49:48;;;;;;;2.05;0.80;;;;;;;;;;4992824;28;20041;-63
2022/05/12 12:52:16;;;;;;;3.83;0.80;;;;;;;;;;4915514;29;20080;-62
2022/05/12 12:57:27;;;;;;;2.58;1.00;;;;;;;;;;4915737;29;20079;-63
2022/05/12 13:00:01;;;;;;;7.05;1.17;;;;;;;;;;4915685;29;20043;-63
2022/05/12 13:02:42;;;;;;;6.80;1.08;;;;;;;;;;4915476;29;20040;-62
2022/05/12 13:05:21;;;;;;;4.50;0.90;;;;;;;;;;4913658;29;20036;-62
2022/05/12 13:08:21;;;;;;;6.45;1.20;;;;;;;;;;4948266;28;20109;-63
2022/05/12 13:10:49;;;;;;;3.13;1.02;;;;;;;;;;4959412;28;20090;-65
2022/05/12 13:13:15;;;;;;;3.35;0.90;;;;;;;;;;4953145;29;20034;-63
2022/05/12 13:15:45;;;;;;;3.35;1.73;;;;;;;;;;4952806;28;20038;-63
2022/05/12 13:18:22;;;;;;;3.33;1.00;;;;;;;;;;4952382;29;20110;-63
2022/05/12 13:20:50;;;;;;;4.88;1.00;;;;;;;;;;4952406;28;20031;-63
2022/05/12 13:23:31;;;;;;;2.30;1.02;;;;;;;;;;4953022;29;20054;-63
2022/05/12 13:26:02;;;;;;;6.03;0.90;;;;;;;;;;4953278;29;20162;-63
2022/05/12 13:28:30;;;;;;;6.82;1.15;;;;;;;;;;4975318;28;20057;-64
2022/05/12 13:31:24;;;;;;;1.92;0.80;;;;;;;;;;5033368;28;20040;-62
2022/05/12 13:33:59;;;;;;;7.05;1.33;;;;;;;;;;5033431;28;20067;-63
2022/05/12 13:36:30;;;;;;;3.38;1.02;;;;;;;;;;5033839;28;20379;-62
2022/05/12 13:38:55;;;;;;;6.07;0.80;;;;;;;;;;5033402;28;20513;-63
2022/05/12 13:41:27;;;;;;;3.00;0.82;;;;;;;;;;5033512;28;20112;-64
2022/05/12 13:44:05;;;;;;;3.63;1.10;;;;;;;;;;5031785;28;20089;-61
2022/05/12 13:46:34;;;;;;;5.50;1.42;;;;;;;;;;5032985;28;20457;-61
2022/05/12 13:49:05;;;;;;;8.32;1.15;;;;;;;;;;5033113;28;20049;-61
2022/05/12 13:51:53;;;;;;;1.88;0.82;;;;;;;;;;5033133;28;20436;-63
2022/05/12 13:54:34;;;;;;;7.32;1.05;;;;;;;;;;5033124;28;20083;-61
2022/05/12 13:57:19;;;;;;;2.30;0.70;;;;;;;;;;5032887;28;20029;-63
2022/05/12 13:59:54;;;;;;;4.47;1.00;;;;;;;;;;5032887;28;20025;-63
2022/05/12 14:02:48;;;;;;;2.40;0.80;;;;;;;;;;5032891;28;20033;-63
2022/05/12 14:05:30;;;;;;;4.53;1.00;;;;;;;;;;5029354;28;20037;-63
2022/05/12 14:08:31;;;;;;;5.32;1.48;;;;;;;;;;5032944;28;20013;-64
2022/05/12 14:11:00;;;;;;;3.33;0.90;;;;;;;;;;5033132;28;20370;-63
2022/05/12 14:19:40;;;;;;;5.47;1.17;;;;;;;;;;5032989;28;20032;-64
2022/05/12 14:22:12;;;;;;;4.47;1.00;;;;;;;;;;5032771;28;20025;-64
2022/05/12 14:24:45;;;;;;;3.70;1.20;;;;;;;;;;5032762;28;20029;-65
2022/05/12 14:27:12;;;;;;;2.42;1.02;;;;;;;;;;5032028;28;20034;-63
2022/05/12 14:29:39;;;;;;;7.72;1.35;;;;;;;;;;5032605;28;20134;-63
2022/05/12 14:32:05;;;;;;;4.45;0.82;;;;;;;;;;5031233;28;20026;-64
2022/05/12 14:34:31;;;;;;;7.65;1.13;;;;;;;;;;5031818;28;20030;-65
2022/05/12 14:37:00;;;;;;;3.05;0.93;;;;;;;;;;5031834;28;20022;-65
2022/05/12 14:39:28;;;;;;;4.47;0.88;;;;;;;;;;5031849;28;20030;-64
2022/05/12 14:41:53;;;;;;;2.65;0.90;;;;;;;;;;5031926;28;20029;-63
2022/05/12 14:44:19;;;;;;;2.03;0.95;;;;;;;;;;5031486;28;20052;-65
2022/05/12 14:46:49;;;;;;;3.97;1.20;;;;;;;;;;5032470;28;20100;-65
2022/05/12 14:49:21;;;;;;;1.58;0.80;;;;;;;;;;5028942;28;20025;-65
2022/05/12 14:51:47;;;;;;;3.13;0.98;;;;;;;;;;5032483;28;20040;-65
2022/05/12 14:54:13;;;;;;;2.85;0.88;;;;;;;;;;5032237;28;20021;-64
2022/05/12 14:56:38;;;;;;;4.70;0.80;;;;;;;;;;5032522;28;20479;-65
2022/05/12 14:59:05;;;;;;;4.75;1.08;;;;;;;;;;5032241;28;20105;-64
2022/05/12 15:01:30;;;;;;;7.75;1.00;;;;;;;;;;5032450;28;20034;-64
2022/05/12 15:04:01;;;;;;;5.05;0.90;;;;;;;;;;5032365;28;20064;-63
2022/05/12 15:06:29;;;;;;;3.10;1.00;;;;;;;;;;5032275;28;20100;-62
2022/05/12 15:08:55;;;;;;;2.83;1.13;;;;;;;;;;5032285;28;20045;-63
2022/05/12 15:11:20;;;;;;;3.42;0.90;;;;;;;;;;5030922;28;20025;-64
2022/05/12 15:13:46;;;;;;;3.25;0.90;;;;;;;;;;5032135;28;20032;-62
2022/05/12 15:16:13;;;;;;;4.00;0.93;;;;;;;;;;5031998;28;20429;-63
2022/05/12 15:18:39;;;;;;;5.15;1.13;;;;;;;;;;5029786;28;20084;-62
2022/05/12 15:21:06;;;;;;;2.20;0.80;;;;;;;;;;5012490;28;20034;-63
2022/05/12 15:23:32;;;;;;;2.00;0.80;;;;;;;;;;5012375;28;20026;-62